createdAt,value
2017-11-22T00:00:02.701Z,92.75
2017-11-22T00:01:02.696Z,94.08
2017-11-22T00:02:02.692Z,93.70
2017-11-22T00:03:02.685Z,93.70
2017-11-22T00:04:02.679Z,93.51
2017-11-22T00:05:02.675Z,93.32
2017-11-22T00:06:02.671Z,93.89
2017-11-22T00:07:02.664Z,93.60
2017-11-22T00:08:02.660Z,93.51
2017-11-22T00:09:02.658Z,93.13
2017-11-22T00:10:02.648Z,92.84
2017-11-22T00:11:02.645Z,93.79
2017-11-22T00:12:02.638Z,93.41
2017-11-22T00:13:02.634Z,93.70
2017-11-22T00:14:02.630Z,92.84
2017-11-22T00:15:02.627Z,93.70
2017-11-22T00:16:02.620Z,93.23
2017-11-22T00:17:02.615Z,93.70
2017-11-22T00:18:02.613Z,93.70
2017-11-22T00:19:02.604Z,92.94
2017-11-22T00:20:02.607Z,93.60
2017-11-22T00:21:02.596Z,92.84
2017-11-22T00:22:02.605Z,92.75
2017-11-22T00:23:02.587Z,93.13
2017-11-22T00:24:02.580Z,92.65
2017-11-22T00:25:02.576Z,92.03
2017-11-22T00:26:02.571Z,92.22
2017-11-22T00:27:02.568Z,91.56
2017-11-22T00:28:02.563Z,91.56
2017-11-22T00:29:02.558Z,91.65
2017-11-22T00:30:02.558Z,91.46
2017-11-22T00:31:02.548Z,90.99
2017-11-22T00:32:02.543Z,90.80
2017-11-22T00:33:02.536Z,91.17
2017-11-22T00:34:02.531Z,90.99
2017-11-22T00:35:02.527Z,91.46
2017-11-22T00:36:02.529Z,91.08
2017-11-22T00:37:02.514Z,91.75
2017-11-22T00:38:02.511Z,91.84
2017-11-22T00:39:02.508Z,92.03
2017-11-22T00:40:02.502Z,91.80
2017-11-22T00:41:02.500Z,91.84
2017-11-22T00:42:02.492Z,91.65
2017-11-22T00:43:02.487Z,91.65
2017-11-22T00:44:02.481Z,91.56
2017-11-22T00:45:02.477Z,91.65
2017-11-22T00:46:02.473Z,92.41
2017-11-22T00:47:02.471Z,91.65
2017-11-22T00:48:02.462Z,92.22
2017-11-22T00:49:02.458Z,91.94
2017-11-22T00:50:02.453Z,92.13
2017-11-22T00:51:02.446Z,92.08
2017-11-22T00:52:02.444Z,92.51
2017-11-22T00:53:02.438Z,92.56
2017-11-22T00:54:02.431Z,92.65
2017-11-22T00:55:02.433Z,91.70
2017-11-22T00:56:02.421Z,92.36
2017-11-22T00:57:02.420Z,92.65
2017-11-22T00:58:02.412Z,92.65
2017-11-22T00:59:02.409Z,92.32
2017-11-22T01:00:02.404Z,92.70
2017-11-22T01:01:02.399Z,92.56
2017-11-22T01:02:02.392Z,92.60
2017-11-22T01:03:02.391Z,92.70
2017-11-22T01:04:02.384Z,92.46
2017-11-22T01:05:02.378Z,92.51
2017-11-22T01:06:02.380Z,92.46
2017-11-22T01:07:02.368Z,92.03
2017-11-22T01:08:02.366Z,92.36
2017-11-22T01:09:02.360Z,92.32
2017-11-22T01:10:02.352Z,92.99
2017-11-22T01:11:02.349Z,92.27
2017-11-22T01:12:02.344Z,92.27
2017-11-22T01:13:02.339Z,92.51
2017-11-22T01:14:02.338Z,92.89
2017-11-22T01:15:02.331Z,92.65
2017-11-22T01:16:02.329Z,92.75
2017-11-22T01:17:02.320Z,92.79
2017-11-22T01:18:02.315Z,92.99
2017-11-22T01:19:02.308Z,93.70
2017-11-22T01:20:02.302Z,93.70
2017-11-22T01:21:02.300Z,92.99
2017-11-22T01:22:02.293Z,93.23
2017-11-22T01:23:02.289Z,93.79
2017-11-22T01:24:02.287Z,93.70
2017-11-22T01:25:02.285Z,93.65
2017-11-22T01:26:02.279Z,93.51
2017-11-22T01:27:02.271Z,93.32
2017-11-22T01:28:02.267Z,93.55
2017-11-22T01:29:02.259Z,92.75
2017-11-22T01:30:02.252Z,93.65
2017-11-22T01:31:02.250Z,93.98
2017-11-22T01:32:02.245Z,93.98
2017-11-22T01:33:02.236Z,93.51
2017-11-22T01:34:02.237Z,94.08
2017-11-22T01:35:02.230Z,93.51
2017-11-22T01:36:02.228Z,93.55
2017-11-22T01:37:02.220Z,93.74
2017-11-22T01:38:02.218Z,93.27
2017-11-22T01:39:02.212Z,92.60
2017-11-22T01:40:02.210Z,92.60
2017-11-22T01:41:02.201Z,93.08
2017-11-22T01:42:02.196Z,92.46
2017-11-22T01:43:02.192Z,92.41
2017-11-22T01:44:02.188Z,92.13
2017-11-22T01:45:02.183Z,92.32
2017-11-22T01:46:02.178Z,92.60
2017-11-22T01:47:02.173Z,92.51
2017-11-22T01:48:02.174Z,92.51
2017-11-22T01:49:02.161Z,92.22
2017-11-22T01:50:02.157Z,92.46
2017-11-22T01:51:02.151Z,92.89
2017-11-22T01:52:02.147Z,92.65
2017-11-22T01:53:02.140Z,92.75
2017-11-22T01:54:02.137Z,92.70
2017-11-22T01:55:02.133Z,93.04
2017-11-22T01:56:02.126Z,92.84
2017-11-22T01:57:02.119Z,93.13
2017-11-22T01:58:02.115Z,92.84
2017-11-22T01:59:02.110Z,92.51
2017-11-22T02:00:02.108Z,92.94
2017-11-22T02:01:02.105Z,92.84
2017-11-22T02:02:02.096Z,92.46
2017-11-22T02:03:02.093Z,92.99
2017-11-22T02:04:02.088Z,93.08
2017-11-22T02:05:02.081Z,92.99
2017-11-22T02:06:02.078Z,93.04
2017-11-22T02:07:02.070Z,93.04
2017-11-22T02:08:02.070Z,93.60
2017-11-22T02:09:02.062Z,93.65
2017-11-22T02:10:02.058Z,93.60
2017-11-22T02:11:02.053Z,93.74
2017-11-22T02:12:02.055Z,93.65
2017-11-22T02:13:02.045Z,93.51
2017-11-22T02:14:02.038Z,93.13
2017-11-22T02:15:02.044Z,93.41
2017-11-22T02:16:02.030Z,93.70
2017-11-22T02:17:02.023Z,93.70
2017-11-22T02:18:02.019Z,93.70
2017-11-22T02:19:02.013Z,93.23
2017-11-22T02:20:02.011Z,93.60
2017-11-22T02:21:02.005Z,93.89
2017-11-22T02:22:01.998Z,94.56
2017-11-22T02:23:01.993Z,94.08
2017-11-22T02:24:01.991Z,93.51
2017-11-22T02:25:01.982Z,93.51
2017-11-22T02:26:01.981Z,93.60
2017-11-22T02:27:01.974Z,93.51
2017-11-22T02:28:01.970Z,94.18
2017-11-22T02:29:01.965Z,93.65
2017-11-22T02:30:01.961Z,93.65
2017-11-22T02:31:01.953Z,93.37
2017-11-22T02:32:01.949Z,93.65
2017-11-22T02:33:01.946Z,93.04
2017-11-22T02:34:01.938Z,93.41
2017-11-22T02:35:01.932Z,93.37
2017-11-22T02:36:01.929Z,93.51
2017-11-22T02:37:01.924Z,93.70
2017-11-22T02:38:01.922Z,93.55
2017-11-22T02:39:01.916Z,94.22
2017-11-22T02:40:01.911Z,94.18
2017-11-22T02:41:01.907Z,94.18
2017-11-22T02:42:01.899Z,93.46
2017-11-22T02:43:01.896Z,93.51
2017-11-22T02:44:01.892Z,93.74
2017-11-22T02:45:01.888Z,93.84
2017-11-22T02:46:01.880Z,94.18
2017-11-22T02:47:01.891Z,94.46
2017-11-22T02:48:01.869Z,94.37
2017-11-22T02:49:01.869Z,94.08
2017-11-22T02:50:01.872Z,94.37
2017-11-22T02:51:01.856Z,94.37
2017-11-22T02:52:01.851Z,93.98
2017-11-22T02:53:01.847Z,93.79
2017-11-22T02:54:01.842Z,94.37
2017-11-22T02:55:01.838Z,94.37
2017-11-22T02:56:01.833Z,94.08
2017-11-22T02:57:01.828Z,94.22
2017-11-22T02:58:01.826Z,94.22
2017-11-22T02:59:01.818Z,94.22
2017-11-22T03:00:01.809Z,93.89
2017-11-22T03:01:01.808Z,94.42
2017-11-22T03:02:01.803Z,94.37
2017-11-22T03:03:01.797Z,93.98
2017-11-22T03:04:01.790Z,93.89
2017-11-22T03:05:01.788Z,93.89
2017-11-22T03:06:01.785Z,95.12
2017-11-22T03:07:01.785Z,94.27
2017-11-22T03:08:01.773Z,94.27
2017-11-22T03:09:01.771Z,94.37
2017-11-22T03:10:01.768Z,94.27
2017-11-22T03:11:01.759Z,94.74
2017-11-22T03:12:01.755Z,94.46
2017-11-22T03:13:01.750Z,94.46
2017-11-22T03:14:01.746Z,94.56
2017-11-22T03:15:01.741Z,94.74
2017-11-22T03:16:01.734Z,94.65
2017-11-22T03:17:01.731Z,94.65
2017-11-22T03:18:01.724Z,94.56
2017-11-22T03:19:01.722Z,94.65
2017-11-22T03:20:01.717Z,95.22
2017-11-22T03:21:01.711Z,95.22
2017-11-22T03:22:01.705Z,94.93
2017-11-22T03:23:01.700Z,95.12
2017-11-22T03:24:01.695Z,95.22
2017-11-22T03:25:01.692Z,95.41
2017-11-22T03:26:01.684Z,95.41
2017-11-22T03:27:01.688Z,95.03
2017-11-22T03:28:01.675Z,95.41
2017-11-22T03:29:01.672Z,95.32
2017-11-22T03:30:01.666Z,95.41
2017-11-22T03:31:01.661Z,95.22
2017-11-22T03:32:01.655Z,95.32
2017-11-22T03:33:01.642Z,95.70
2017-11-22T03:34:01.644Z,95.32
2017-11-22T03:35:01.639Z,95.03
2017-11-22T03:36:01.637Z,95.51
2017-11-22T03:37:01.632Z,95.22
2017-11-22T03:38:01.627Z,95.03
2017-11-22T03:39:01.624Z,95.51
2017-11-22T03:40:01.615Z,95.32
2017-11-22T03:41:01.613Z,94.93
2017-11-22T03:42:01.606Z,95.41
2017-11-22T03:43:01.602Z,95.60
2017-11-22T03:44:01.594Z,95.51
2017-11-22T03:45:01.593Z,95.32
2017-11-22T03:46:01.583Z,95.32
2017-11-22T03:47:01.581Z,95.51
2017-11-22T03:48:01.576Z,95.32
2017-11-22T03:49:01.572Z,95.89
2017-11-22T03:50:01.571Z,95.22
2017-11-22T03:51:01.562Z,95.03
2017-11-22T03:52:01.558Z,95.60
2017-11-22T03:53:01.553Z,95.32
2017-11-22T03:54:01.546Z,96.36
2017-11-22T03:55:01.543Z,95.89
2017-11-22T03:56:01.537Z,95.70
2017-11-22T03:57:01.534Z,95.79
2017-11-22T03:58:01.534Z,96.08
2017-11-22T03:59:01.522Z,95.70
2017-11-22T04:00:01.523Z,95.51
2017-11-22T04:01:01.512Z,95.41
2017-11-22T04:02:01.507Z,95.32
2017-11-22T04:03:01.506Z,95.22
2017-11-22T04:04:01.500Z,95.51
2017-11-22T04:05:01.493Z,95.32
2017-11-22T04:06:01.489Z,95.70
2017-11-22T04:07:01.483Z,95.89
2017-11-22T04:08:01.480Z,95.51
2017-11-22T04:09:01.478Z,95.89
2017-11-22T04:10:01.470Z,95.89
2017-11-22T04:11:01.464Z,96.08
2017-11-22T04:12:01.463Z,96.17
2017-11-22T04:13:01.455Z,96.36
2017-11-22T04:14:01.449Z,96.55
2017-11-22T04:15:01.445Z,96.08
2017-11-22T04:16:01.439Z,95.98
2017-11-22T04:17:01.435Z,96.08
2017-11-22T04:18:01.434Z,96.46
2017-11-22T04:19:01.423Z,96.65
2017-11-22T04:20:01.422Z,96.55
2017-11-22T04:21:01.422Z,96.55
2017-11-22T04:22:01.409Z,96.84
2017-11-22T04:23:01.403Z,96.65
2017-11-22T04:24:01.405Z,96.74
2017-11-22T04:25:01.395Z,96.74
2017-11-22T04:26:01.388Z,96.65
2017-11-22T04:27:01.385Z,96.55
2017-11-22T04:28:01.382Z,96.74
2017-11-22T04:29:01.378Z,97.13
2017-11-22T04:30:01.371Z,96.94
2017-11-22T04:31:01.365Z,96.94
2017-11-22T04:32:01.369Z,96.94
2017-11-22T04:33:01.357Z,96.65
2017-11-22T04:34:01.340Z,96.74
2017-11-22T04:35:01.349Z,96.65
2017-11-22T04:36:01.352Z,97.03
2017-11-22T04:37:01.347Z,96.94
2017-11-22T04:38:01.332Z,96.94
2017-11-22T04:39:01.326Z,97.60
2017-11-22T04:40:01.320Z,97.60
2017-11-22T04:41:01.319Z,97.60
2017-11-22T04:42:01.312Z,97.88
2017-11-22T04:43:01.309Z,97.60
2017-11-22T04:44:01.308Z,97.60
2017-11-22T04:45:01.292Z,97.13
2017-11-22T04:46:01.301Z,97.03
2017-11-22T04:47:01.289Z,96.94
2017-11-22T04:48:01.282Z,97.22
2017-11-22T04:49:01.278Z,97.22
2017-11-22T04:50:01.273Z,97.41
2017-11-22T04:51:01.276Z,97.50
2017-11-22T04:52:01.266Z,97.69
2017-11-22T04:53:01.258Z,97.41
2017-11-22T04:54:01.253Z,97.79
2017-11-22T04:55:01.251Z,97.69
2017-11-22T04:56:01.248Z,97.69
2017-11-22T04:57:01.240Z,97.31
2017-11-22T04:58:01.241Z,97.22
2017-11-22T04:59:01.239Z,97.69
2017-11-22T05:00:01.228Z,97.03
2017-11-22T05:01:01.222Z,97.88
2017-11-22T05:02:01.214Z,96.74
2017-11-22T05:03:01.212Z,97.22
2017-11-22T05:04:01.207Z,97.22
2017-11-22T05:05:01.201Z,96.94
2017-11-22T05:06:01.197Z,97.50
2017-11-22T05:07:01.190Z,96.94
2017-11-22T05:08:01.194Z,96.94
2017-11-22T05:09:01.186Z,96.65
2017-11-22T05:10:01.175Z,96.55
2017-11-22T05:11:01.172Z,96.84
2017-11-22T05:12:01.167Z,96.36
2017-11-22T05:13:01.163Z,96.46
2017-11-22T05:14:01.155Z,96.74
2017-11-22T05:15:01.152Z,96.36
2017-11-22T05:16:01.149Z,96.26
2017-11-22T05:17:01.141Z,96.55
2017-11-22T05:18:01.137Z,95.98
2017-11-22T05:19:01.131Z,96.36
2017-11-22T05:20:01.121Z,96.46
2017-11-22T05:21:01.125Z,96.55
2017-11-22T05:22:01.116Z,95.89
2017-11-22T05:23:01.113Z,95.89
2017-11-22T05:24:01.108Z,96.26
2017-11-22T05:25:01.105Z,96.08
2017-11-22T05:26:01.100Z,95.51
2017-11-22T05:27:01.094Z,95.98
2017-11-22T05:28:01.091Z,95.98
2017-11-22T05:29:01.086Z,95.98
2017-11-22T05:30:01.078Z,95.70
2017-11-22T05:31:01.074Z,96.17
2017-11-22T05:32:01.068Z,95.22
2017-11-22T05:33:01.065Z,95.32
2017-11-22T05:34:01.061Z,95.22
2017-11-22T05:35:01.055Z,95.22
2017-11-22T05:36:01.048Z,95.51
2017-11-22T05:37:01.043Z,95.41
2017-11-22T05:38:01.039Z,95.12
2017-11-22T05:39:01.033Z,94.93
2017-11-22T05:40:01.036Z,95.12
2017-11-22T05:41:01.024Z,94.93
2017-11-22T05:42:01.021Z,94.74
2017-11-22T05:43:01.008Z,94.74
2017-11-22T05:44:01.009Z,94.65
2017-11-22T05:45:01.005Z,94.46
2017-11-22T05:46:01.007Z,94.56
2017-11-22T05:47:00.993Z,93.51
2017-11-22T05:48:00.988Z,93.60
2017-11-22T05:49:00.983Z,93.98
2017-11-22T05:50:00.980Z,94.27
2017-11-22T05:51:00.974Z,94.84
2017-11-22T05:52:00.967Z,94.93
2017-11-22T05:53:00.963Z,94.65
2017-11-22T05:54:00.963Z,93.89
2017-11-22T05:55:00.953Z,94.37
2017-11-22T05:56:00.952Z,93.41
2017-11-22T05:57:00.944Z,94.37
2017-11-22T05:58:00.937Z,94.08
2017-11-22T05:59:00.933Z,94.74
2017-11-22T06:00:00.928Z,94.74
2017-11-22T06:01:00.923Z,93.98
2017-11-22T06:02:00.923Z,93.79
2017-11-22T06:03:00.923Z,93.98
2017-11-22T06:04:00.908Z,93.60
2017-11-22T06:05:00.903Z,94.27
2017-11-22T06:06:00.901Z,94.08
2017-11-22T06:07:00.892Z,94.37
2017-11-22T06:08:00.887Z,94.18
2017-11-22T06:09:00.882Z,93.70
2017-11-22T06:10:00.878Z,94.37
2017-11-22T06:11:00.869Z,94.27
2017-11-22T06:12:00.865Z,94.27
2017-11-22T06:13:00.869Z,93.70
2017-11-22T06:14:00.859Z,93.79
2017-11-22T06:15:00.856Z,93.98
2017-11-22T06:16:00.847Z,93.70
2017-11-22T06:17:00.844Z,93.98
2017-11-22T06:18:00.840Z,94.08
2017-11-22T06:19:00.838Z,94.56
2017-11-22T06:20:00.832Z,94.65
2017-11-22T06:21:00.829Z,94.37
2017-11-22T06:22:00.823Z,93.70
2017-11-22T06:23:00.820Z,93.89
2017-11-22T06:24:00.815Z,93.70
2017-11-22T06:25:00.811Z,93.70
2017-11-22T06:26:00.804Z,94.18
2017-11-22T06:27:00.795Z,94.37
2017-11-22T06:28:00.790Z,93.98
2017-11-22T06:29:00.786Z,94.37
2017-11-22T06:30:00.778Z,94.37
2017-11-22T06:31:00.774Z,94.56
2017-11-22T06:32:00.768Z,94.46
2017-11-22T06:33:00.765Z,94.27
2017-11-22T06:34:00.761Z,94.37
2017-11-22T06:35:00.760Z,94.46
2017-11-22T06:36:00.749Z,94.56
2017-11-22T06:37:00.744Z,94.46
2017-11-22T06:38:00.738Z,93.70
2017-11-22T06:39:00.732Z,93.70
2017-11-22T06:40:00.727Z,93.60
2017-11-22T06:41:00.721Z,93.60
2017-11-22T06:42:00.718Z,93.60
2017-11-22T06:43:00.714Z,93.60
2017-11-22T06:44:00.707Z,93.70
2017-11-22T06:45:00.704Z,93.60
2017-11-22T06:46:00.697Z,93.79
2017-11-22T06:47:00.690Z,93.70
2017-11-22T06:48:00.689Z,93.70
2017-11-22T06:49:00.687Z,93.79
2017-11-22T06:50:00.675Z,93.70
2017-11-22T06:51:00.670Z,93.60
2017-11-22T06:52:00.667Z,93.51
2017-11-22T06:53:00.662Z,93.51
2017-11-22T06:54:00.655Z,93.41
2017-11-22T06:55:00.651Z,93.70
2017-11-22T06:56:00.644Z,94.08
2017-11-22T06:57:00.644Z,94.08
2017-11-22T06:58:00.633Z,93.70
2017-11-22T06:59:00.631Z,93.70
2017-11-22T07:00:00.624Z,93.98
2017-11-22T07:01:00.621Z,93.60
2017-11-22T07:02:00.613Z,93.89
2017-11-22T07:03:00.609Z,93.60
2017-11-22T07:04:00.606Z,93.51
2017-11-22T07:05:00.600Z,93.32
2017-11-22T07:06:00.592Z,93.70
2017-11-22T07:07:00.590Z,93.89
2017-11-22T07:08:00.588Z,93.70
2017-11-22T07:09:00.580Z,94.08
2017-11-22T07:10:00.574Z,94.08
2017-11-22T07:11:00.569Z,94.46
2017-11-22T07:12:00.566Z,94.74
2017-11-22T07:13:00.559Z,93.98
2017-11-22T07:14:00.560Z,94.18
2017-11-22T07:15:00.549Z,93.98
2017-11-22T07:16:00.544Z,94.27
2017-11-22T07:17:00.541Z,93.89
2017-11-22T07:18:00.535Z,94.37
2017-11-22T07:19:00.530Z,93.98
2017-11-22T07:20:00.527Z,94.18
2017-11-22T07:21:00.519Z,94.08
2017-11-22T07:22:00.519Z,94.93
2017-11-22T07:23:00.512Z,93.89
2017-11-22T07:24:00.506Z,93.98
2017-11-22T07:25:00.499Z,94.18
2017-11-22T07:26:00.495Z,94.08
2017-11-22T07:27:00.492Z,93.70
2017-11-22T07:28:00.490Z,93.70
2017-11-22T07:29:00.487Z,94.46
2017-11-22T07:30:00.475Z,94.46
2017-11-22T07:31:00.482Z,94.65
2017-11-22T07:32:00.465Z,93.89
2017-11-22T07:33:00.461Z,94.46
2017-11-22T07:34:00.455Z,94.37
2017-11-22T07:35:00.455Z,93.98
2017-11-22T07:36:00.444Z,93.89
2017-11-22T07:37:00.440Z,93.89
2017-11-22T07:38:00.435Z,94.46
2017-11-22T07:39:00.429Z,93.79
2017-11-22T07:40:00.427Z,93.70
2017-11-22T07:41:00.420Z,93.89
2017-11-22T07:42:00.416Z,93.89
2017-11-22T07:43:00.412Z,93.98
2017-11-22T07:44:00.406Z,94.27
2017-11-22T07:45:00.400Z,93.79
2017-11-22T07:46:00.405Z,93.79
2017-11-22T07:47:00.392Z,94.18
2017-11-22T07:48:00.388Z,93.98
2017-11-22T07:49:00.380Z,93.89
2017-11-22T07:50:00.375Z,94.46
2017-11-22T07:51:00.370Z,94.08
2017-11-22T07:52:00.365Z,94.65
2017-11-22T07:53:00.360Z,94.37
2017-11-22T07:54:00.355Z,93.89
2017-11-22T07:55:00.351Z,94.27
2017-11-22T07:56:00.345Z,94.08
2017-11-22T07:57:00.342Z,94.84
2017-11-22T07:58:00.336Z,94.56
2017-11-22T07:59:00.332Z,94.56
2017-11-22T08:00:00.328Z,94.74
2017-11-22T08:01:00.323Z,94.65
2017-11-22T08:02:00.316Z,94.74
2017-11-22T08:03:00.314Z,95.12
2017-11-22T08:04:00.311Z,95.46
2017-11-22T08:05:00.303Z,95.08
2017-11-22T08:06:00.297Z,95.32
2017-11-22T08:07:00.295Z,95.32
2017-11-22T08:08:00.292Z,95.60
2017-11-22T08:09:00.284Z,95.03
2017-11-22T08:10:00.278Z,95.22
2017-11-22T08:11:00.273Z,95.22
2017-11-22T08:12:00.269Z,95.41
2017-11-22T08:13:00.263Z,95.32
2017-11-22T08:14:00.258Z,95.60
2017-11-22T08:15:00.266Z,95.03
2017-11-22T08:16:00.250Z,95.41
2017-11-22T08:17:00.247Z,95.70
2017-11-22T08:18:00.239Z,95.51
2017-11-22T08:19:00.244Z,95.03
2017-11-22T08:20:00.235Z,95.27
2017-11-22T08:21:00.227Z,95.32
2017-11-22T08:22:00.221Z,95.12
2017-11-22T08:23:00.218Z,95.41
2017-11-22T08:24:00.209Z,95.32
2017-11-22T08:25:00.213Z,95.32
2017-11-22T08:26:00.201Z,95.89
2017-11-22T08:27:00.203Z,95.41
2017-11-22T08:28:00.201Z,95.32
2017-11-22T08:29:00.187Z,95.60
2017-11-22T08:30:00.180Z,95.22
2017-11-22T08:31:00.175Z,95.32
2017-11-22T08:32:00.172Z,95.32
2017-11-22T08:33:00.170Z,95.89
2017-11-22T08:34:00.160Z,95.51
2017-11-22T08:35:00.158Z,95.70
2017-11-22T08:36:00.151Z,95.51
2017-11-22T08:37:00.151Z,95.12
2017-11-22T08:38:00.141Z,95.12
2017-11-22T08:39:00.138Z,94.84
2017-11-22T08:40:00.135Z,95.41
2017-11-22T08:41:00.128Z,95.41
2017-11-22T08:42:00.122Z,95.51
2017-11-22T08:43:00.118Z,95.12
2017-11-22T08:44:00.110Z,95.41
2017-11-22T08:45:00.115Z,94.84
2017-11-22T08:46:00.105Z,95.12
2017-11-22T08:47:00.098Z,95.32
2017-11-22T08:48:00.094Z,94.65
2017-11-22T08:49:00.093Z,94.74
2017-11-22T08:50:00.085Z,94.84
2017-11-22T08:51:00.079Z,94.93
2017-11-22T08:52:00.075Z,94.93
2017-11-22T08:53:00.071Z,94.93
2017-11-22T08:54:00.065Z,95.12
2017-11-22T08:55:00.069Z,95.32
2017-11-22T08:56:00.056Z,95.41
2017-11-22T08:57:00.051Z,95.22
2017-11-22T08:58:00.048Z,95.51
2017-11-22T08:59:00.041Z,95.51
2017-11-22T09:00:00.038Z,95.60
2017-11-22T09:01:00.033Z,95.03
2017-11-22T09:02:00.032Z,96.08
2017-11-22T09:03:00.022Z,95.98
2017-11-22T09:04:00.021Z,95.89
2017-11-22T09:05:00.016Z,96.08
2017-11-22T09:06:00.011Z,95.89
2017-11-22T09:07:00.007Z,96.36
2017-11-22T09:07:59.999Z,96.08
2017-11-22T09:08:59.997Z,95.32
2017-11-22T09:09:59.992Z,95.32
2017-11-22T09:10:59.991Z,96.08
2017-11-22T09:12:00.011Z,95.89
2017-11-22T09:12:59.977Z,96.17
2017-11-22T09:13:59.971Z,95.84
2017-11-22T09:14:59.969Z,96.08
2017-11-22T09:15:59.964Z,95.89
2017-11-22T09:16:59.961Z,95.51
2017-11-22T09:17:59.958Z,95.79
2017-11-22T09:18:59.950Z,95.84
2017-11-22T09:19:59.947Z,96.41
2017-11-22T09:20:59.942Z,96.26
2017-11-22T09:21:59.935Z,95.98
2017-11-22T09:22:59.933Z,96.55
2017-11-22T09:23:59.927Z,96.08
2017-11-22T09:24:59.924Z,95.94
2017-11-22T09:25:59.914Z,95.84
2017-11-22T09:26:59.906Z,95.94
2017-11-22T09:27:59.909Z,96.12
2017-11-22T09:28:59.904Z,95.65
2017-11-22T09:29:59.905Z,95.17
2017-11-22T09:30:59.894Z,95.46
2017-11-22T09:31:59.892Z,95.17
2017-11-22T09:32:59.886Z,95.27
2017-11-22T09:33:59.879Z,95.36
2017-11-22T09:34:59.876Z,94.79
2017-11-22T09:35:59.872Z,95.08
2017-11-22T09:36:59.871Z,95.56
2017-11-22T09:37:59.864Z,94.70
2017-11-22T09:38:59.861Z,94.89
2017-11-22T09:39:59.854Z,94.60
2017-11-22T09:40:59.850Z,94.51
2017-11-22T09:41:59.846Z,94.60
2017-11-22T09:42:59.837Z,94.03
2017-11-22T09:43:59.836Z,93.84
2017-11-22T09:44:59.831Z,93.84
2017-11-22T09:45:59.828Z,94.17
2017-11-22T09:46:59.824Z,94.22
2017-11-22T09:47:59.818Z,93.79
2017-11-22T09:48:59.815Z,94.46
2017-11-22T09:49:59.808Z,93.98
2017-11-22T09:50:59.808Z,94.27
2017-11-22T09:51:59.805Z,94.08
2017-11-22T09:52:59.795Z,93.98
2017-11-22T09:53:59.793Z,93.98
2017-11-22T09:54:59.788Z,93.89
2017-11-22T09:55:59.785Z,93.79
2017-11-22T09:56:59.800Z,94.27
2017-11-22T09:57:59.782Z,93.89
2017-11-22T09:58:59.771Z,93.79
2017-11-22T09:59:59.766Z,93.60
2017-11-22T10:00:59.762Z,93.03
2017-11-22T10:01:59.758Z,93.03
2017-11-22T10:02:59.754Z,92.55
2017-11-22T10:03:59.752Z,93.22
2017-11-22T10:04:59.746Z,92.65
2017-11-22T10:05:59.746Z,92.27
2017-11-22T10:06:59.736Z,92.55
2017-11-22T10:07:59.734Z,92.27
2017-11-22T10:08:59.730Z,92.65
2017-11-22T10:09:59.722Z,92.65
2017-11-22T10:10:59.719Z,91.99
2017-11-22T10:11:59.715Z,92.50
2017-11-22T10:12:59.710Z,92.65
2017-11-22T10:13:59.705Z,92.22
2017-11-22T10:14:59.703Z,92.32
2017-11-22T10:15:59.707Z,92.22
2017-11-22T10:16:59.695Z,91.27
2017-11-22T10:17:59.693Z,92.13
2017-11-22T10:18:59.685Z,92.32
2017-11-22T10:19:59.681Z,91.74
2017-11-22T10:20:59.679Z,91.74
2017-11-22T10:21:59.674Z,91.65
2017-11-22T10:22:59.667Z,91.46
2017-11-22T10:23:59.670Z,91.55
2017-11-22T10:24:59.659Z,91.84
2017-11-22T10:25:59.657Z,91.74
2017-11-22T10:26:59.653Z,91.65
2017-11-22T10:27:59.650Z,91.46
2017-11-22T10:28:59.655Z,91.74
2017-11-22T10:29:59.639Z,91.46
2017-11-22T10:30:59.644Z,91.74
2017-11-22T10:31:59.635Z,90.31
2017-11-22T10:32:59.629Z,90.98
2017-11-22T10:33:59.628Z,90.41
2017-11-22T10:34:59.620Z,90.12
2017-11-22T10:35:59.617Z,91.46
2017-11-22T10:36:59.612Z,90.50
2017-11-22T10:37:59.609Z,90.31
2017-11-22T10:38:59.604Z,89.94
2017-11-22T10:39:59.600Z,89.94
2017-11-22T10:40:59.597Z,89.79
2017-11-22T10:41:59.592Z,89.12
2017-11-22T10:42:59.590Z,89.31
2017-11-22T10:43:59.589Z,89.22
2017-11-22T10:44:59.581Z,88.93
2017-11-22T10:45:59.577Z,88.45
2017-11-22T10:46:59.571Z,87.79
2017-11-22T10:47:59.569Z,88.07
2017-11-22T10:48:59.567Z,87.40
2017-11-22T10:49:59.561Z,87.02
2017-11-22T10:50:59.559Z,87.21
2017-11-22T10:51:59.556Z,86.45
2017-11-22T10:52:59.550Z,85.97
2017-11-22T10:53:59.546Z,86.21
2017-11-22T10:54:59.545Z,86.40
2017-11-22T10:55:59.540Z,85.64
2017-11-22T10:56:59.541Z,85.54
2017-11-22T10:57:59.535Z,86.59
2017-11-22T10:58:59.529Z,86.69
2017-11-22T10:59:59.537Z,86.49
2017-11-22T11:00:59.523Z,86.30
2017-11-22T11:01:59.519Z,86.02
2017-11-22T11:02:59.531Z,86.40
2017-11-22T11:03:59.521Z,86.02
2017-11-22T11:04:59.534Z,86.21
2017-11-22T11:05:59.519Z,86.21
2017-11-22T11:06:59.492Z,85.93
2017-11-22T11:07:59.497Z,84.59
2017-11-22T11:08:59.526Z,83.44
2017-11-22T11:09:59.487Z,83.25
2017-11-22T11:10:59.480Z,83.06
2017-11-22T11:11:59.487Z,83.54
2017-11-22T11:12:59.479Z,83.35
2017-11-22T11:13:59.462Z,83.06
2017-11-22T11:14:59.471Z,82.97
2017-11-22T11:15:59.468Z,82.59
2017-11-22T11:16:59.464Z,82.78
2017-11-22T11:17:59.460Z,82.20
2017-11-22T11:18:59.468Z,82.87
2017-11-22T11:19:59.454Z,81.92
2017-11-22T11:20:59.449Z,81.73
2017-11-22T11:21:59.444Z,81.77
2017-11-22T11:22:59.441Z,80.58
2017-11-22T11:23:59.441Z,80.20
2017-11-22T11:24:59.435Z,80.91
2017-11-22T11:25:59.428Z,80.05
2017-11-22T11:26:59.425Z,80.43
2017-11-22T11:27:59.423Z,80.43
2017-11-22T11:28:59.423Z,80.33
2017-11-22T11:29:59.430Z,80.72
2017-11-22T11:30:59.419Z,80.72
2017-11-22T11:31:59.410Z,80.15
2017-11-22T11:32:59.405Z,80.33
2017-11-22T11:33:59.406Z,80.05
2017-11-22T11:34:59.416Z,80.33
2017-11-22T11:35:59.403Z,81.01
2017-11-22T11:36:59.407Z,80.33
2017-11-22T11:37:59.389Z,80.05
2017-11-22T11:38:59.381Z,79.86
2017-11-22T11:39:59.380Z,79.48
2017-11-22T11:40:59.369Z,79.77
2017-11-22T11:41:59.373Z,80.43
2017-11-22T11:42:59.384Z,80.24
2017-11-22T11:43:59.367Z,81.48
2017-11-22T11:44:59.361Z,80.62
2017-11-22T11:45:59.359Z,81.01
2017-11-22T11:46:59.357Z,82.00
2017-11-22T11:47:59.355Z,82.06
2017-11-22T11:48:59.350Z,81.86
2017-11-22T11:49:59.346Z,81.90
2017-11-22T11:50:59.345Z,81.62
2017-11-22T11:51:59.343Z,82.29
2017-11-22T11:52:59.336Z,81.71
2017-11-22T11:53:59.335Z,80.19
2017-11-22T11:54:59.328Z,79.48
2017-11-22T11:55:59.328Z,79.61
2017-11-22T11:56:59.325Z,78.62
2017-11-22T11:57:59.320Z,78.52
2017-11-22T11:58:59.332Z,78.62
2017-11-22T11:59:59.313Z,78.52
2017-11-22T12:00:59.312Z,78.62
2017-11-22T12:01:59.308Z,79.38
2017-11-22T12:02:59.330Z,78.91
2017-11-22T12:03:59.298Z,78.33
2017-11-22T12:04:59.296Z,78.14
2017-11-22T12:05:59.295Z,78.85
2017-11-22T12:06:59.293Z,78.85
2017-11-22T12:07:59.286Z,78.33
2017-11-22T12:08:59.281Z,78.37
2017-11-22T12:09:59.277Z,78.09
2017-11-22T12:10:59.274Z,77.80
2017-11-22T12:11:59.272Z,78.18
2017-11-22T12:12:59.269Z,78.75
2017-11-22T12:13:59.262Z,77.80
2017-11-22T12:14:59.258Z,77.99
2017-11-22T12:15:59.259Z,77.70
2017-11-22T12:16:59.253Z,76.94
2017-11-22T12:17:59.248Z,77.51
2017-11-22T12:18:59.246Z,77.70
2017-11-22T12:19:59.241Z,78.47
2017-11-22T12:20:59.238Z,77.89
2017-11-22T12:21:59.231Z,77.80
2017-11-22T12:22:59.231Z,78.09
2017-11-22T12:23:59.225Z,78.75
2017-11-22T12:24:59.228Z,78.66
2017-11-22T12:25:59.220Z,78.56
2017-11-22T12:26:59.216Z,78.94
2017-11-22T12:27:59.212Z,78.75
2017-11-22T12:28:59.209Z,78.66
2017-11-22T12:29:59.211Z,77.70
2017-11-22T12:30:59.201Z,77.61
2017-11-22T12:31:59.202Z,77.32
2017-11-22T12:32:59.193Z,77.03
2017-11-22T12:33:59.192Z,77.70
2017-11-22T12:34:59.181Z,76.56
2017-11-22T12:35:59.187Z,76.27
2017-11-22T12:36:59.177Z,76.18
2017-11-22T12:37:59.173Z,76.75
2017-11-22T12:38:59.172Z,77.03
2017-11-22T12:39:59.167Z,76.94
2017-11-22T12:40:59.163Z,77.23
2017-11-22T12:41:59.160Z,77.80
2017-11-22T12:42:59.164Z,77.99
2017-11-22T12:43:59.150Z,77.89
2017-11-22T12:44:59.147Z,77.99
2017-11-22T12:45:59.142Z,77.55
2017-11-22T12:46:59.139Z,77.80
2017-11-22T12:47:59.136Z,77.70
2017-11-22T12:48:59.134Z,77.80
2017-11-22T12:49:59.129Z,77.80
2017-11-22T12:50:59.127Z,77.70
2017-11-22T12:51:59.123Z,78.22